createdAt,value
2018-03-14T00:01:13.134Z,1.10
2018-03-14T00:03:41.596Z,0.63
2018-03-14T00:06:10.754Z,0.82
2018-03-14T00:08:40.390Z,0.80
2018-03-14T00:11:22.523Z,0.73
2018-03-14T00:13:51.086Z,0.82
2018-03-14T00:16:19.519Z,0.83
2018-03-14T00:18:48.731Z,0.93
2018-03-14T00:21:17.467Z,0.90
2018-03-14T00:23:46.422Z,1.20
2018-03-14T00:26:15.367Z,1.00
2018-03-14T00:28:44.393Z,1.20
2018-03-14T00:31:13.108Z,1.20
2018-03-14T00:33:41.802Z,1.10
2018-03-14T00:36:10.772Z,0.90
2018-03-14T00:38:39.417Z,0.88
2018-03-14T00:41:08.462Z,0.87
2018-03-14T00:43:37.546Z,0.90
2018-03-14T00:46:06.035Z,1.30
2018-03-14T00:48:35.484Z,1.17
2018-03-14T00:51:04.792Z,1.20
2018-03-14T00:53:33.746Z,1.33
2018-03-14T00:56:02.169Z,1.10
2018-03-14T00:58:31.621Z,1.70
2018-03-14T01:01:00.583Z,1.27
2018-03-14T01:03:29.267Z,1.37
2018-03-14T01:05:57.887Z,1.53
2018-03-14T01:08:27.053Z,1.17
2018-03-14T01:10:56.111Z,1.20
2018-03-14T01:13:25.027Z,1.57
2018-03-14T01:15:53.948Z,1.60
2018-03-14T01:18:22.671Z,1.50
2018-03-14T01:20:52.764Z,1.40
2018-03-14T01:23:20.939Z,1.40
2018-03-14T01:25:49.708Z,1.62
2018-03-14T01:28:18.650Z,1.40
2018-03-14T01:30:46.709Z,1.40
2018-03-14T01:33:16.250Z,1.30
2018-03-14T01:35:45.283Z,1.60
2018-03-14T01:38:14.702Z,1.73
2018-03-14T01:40:43.278Z,1.20
2018-03-14T01:43:12.295Z,1.70
2018-03-14T01:45:41.037Z,1.70
2018-03-14T01:48:10.242Z,1.60
2018-03-14T01:50:38.539Z,1.73
2018-03-14T01:53:18.411Z,2.28
2018-03-14T01:55:47.884Z,2.10
2018-03-14T01:58:17.078Z,1.70
2018-03-14T02:00:45.630Z,1.93
2018-03-14T02:03:15.421Z,1.90
2018-03-14T02:05:45.084Z,1.70
2018-03-14T02:08:14.018Z,1.70
2018-03-14T02:10:52.498Z,1.90
2018-03-14T02:13:20.567Z,2.20
2018-03-14T02:15:48.766Z,1.80
2018-03-14T02:18:17.300Z,2.10
2018-03-14T02:20:45.629Z,1.80
2018-03-14T02:23:14.527Z,1.90
2018-03-14T02:25:44.077Z,2.17
2018-03-14T02:28:12.133Z,2.27
2018-03-14T02:30:40.667Z,2.78
2018-03-14T02:33:09.462Z,2.50
2018-03-14T02:35:37.720Z,2.23
2018-03-14T02:38:07.013Z,2.00
2018-03-14T02:40:36.813Z,2.50
2018-03-14T02:43:06.581Z,2.23
2018-03-14T02:45:35.277Z,2.03
2018-03-14T02:48:04.221Z,1.80
2018-03-14T02:50:32.377Z,1.83
2018-03-14T02:53:00.645Z,1.87
2018-03-14T02:55:28.597Z,2.30
2018-03-14T02:57:57.169Z,2.00
2018-03-14T03:00:27.068Z,2.10
2018-03-14T03:02:55.474Z,2.20
2018-03-14T03:05:23.192Z,2.00
2018-03-14T03:07:52.321Z,2.10
2018-03-14T03:10:33.675Z,2.23
2018-03-14T03:13:02.527Z,2.40
2018-03-14T03:15:31.904Z,2.33
2018-03-14T03:18:01.293Z,2.20
2018-03-14T03:20:30.248Z,1.90
2018-03-14T03:22:59.692Z,1.80
2018-03-14T03:25:29.520Z,1.83
2018-03-14T03:27:58.617Z,1.30
2018-03-14T03:30:27.616Z,1.70
2018-03-14T03:32:56.356Z,1.60
2018-03-14T03:35:25.384Z,1.90
2018-03-14T03:37:53.786Z,1.73
2018-03-14T03:40:23.209Z,2.40
2018-03-14T03:42:51.791Z,2.40
2018-03-14T03:45:20.661Z,2.63
2018-03-14T03:47:49.446Z,2.23
2018-03-14T03:50:17.900Z,2.47
2018-03-14T03:52:46.959Z,2.30
2018-03-14T03:55:15.813Z,2.70
2018-03-14T03:57:44.858Z,2.30
2018-03-14T04:00:13.860Z,1.90
2018-03-14T04:02:43.519Z,2.25
2018-03-14T04:05:12.563Z,1.53
2018-03-14T04:07:41.863Z,1.90
2018-03-14T04:10:10.673Z,1.87
2018-03-14T04:12:39.803Z,2.10
2018-03-14T04:15:08.818Z,1.50
2018-03-14T04:17:38.030Z,1.70
2018-03-14T04:20:06.905Z,1.98
2018-03-14T04:22:35.349Z,2.03
2018-03-14T04:25:04.154Z,1.70
2018-03-14T04:27:33.026Z,2.30
2018-03-14T04:30:02.387Z,2.33
2018-03-14T04:32:31.138Z,1.97
2018-03-14T04:34:59.935Z,2.00
2018-03-14T04:37:29.242Z,2.10
2018-03-14T04:39:59.307Z,2.30
2018-03-14T04:42:28.213Z,2.20
2018-03-14T04:44:57.532Z,2.13
2018-03-14T04:47:26.872Z,2.30
2018-03-14T04:49:56.089Z,2.30
2018-03-14T04:52:24.862Z,2.15
2018-03-14T04:54:54.576Z,2.20
2018-03-14T04:57:23.343Z,1.90
2018-03-14T04:59:52.329Z,3.80
2018-03-14T05:02:21.113Z,4.30
2018-03-14T05:04:50.075Z,7.43
2018-03-14T05:07:19.128Z,8.50
2018-03-14T05:09:48.112Z,9.90
2018-03-14T05:12:16.839Z,7.83
2018-03-14T05:14:45.212Z,8.70
2018-03-14T05:17:14.243Z,7.20
2018-03-14T05:19:43.326Z,6.03
2018-03-14T05:22:21.514Z,8.67
2018-03-14T05:24:49.997Z,8.47
2018-03-14T05:27:17.916Z,8.53
2018-03-14T05:29:46.811Z,8.70
2018-03-14T05:32:17.284Z,8.93
2018-03-14T05:34:46.446Z,7.73
2018-03-14T05:37:16.090Z,8.30
2018-03-14T05:39:44.803Z,7.60
2018-03-14T05:42:13.392Z,7.27
2018-03-14T05:44:42.049Z,7.40
2018-03-14T05:47:10.842Z,7.00
2018-03-14T05:49:39.942Z,7.35
2018-03-14T05:52:08.333Z,6.93
2018-03-14T05:54:37.699Z,14.20
2018-03-14T05:57:06.855Z,6.97
2018-03-14T05:59:35.469Z,6.80
2018-03-14T06:02:04.746Z,6.70
2018-03-14T06:04:32.452Z,7.30
2018-03-14T06:07:00.753Z,7.47
2018-03-14T06:09:28.342Z,7.70
2018-03-14T06:11:56.176Z,6.93
2018-03-14T06:14:24.815Z,6.57
2018-03-14T06:16:55.243Z,7.70
2018-03-14T06:19:23.023Z,7.30
2018-03-14T06:21:50.644Z,6.97
2018-03-14T06:24:19.708Z,7.70
2018-03-14T06:26:48.486Z,6.63
2018-03-14T06:29:16.542Z,7.30
2018-03-14T06:31:44.136Z,7.17
2018-03-14T06:34:11.881Z,7.03
2018-03-14T06:36:39.897Z,7.30
2018-03-14T06:39:07.544Z,7.50
2018-03-14T06:41:35.055Z,7.57
2018-03-14T06:44:02.657Z,6.97
2018-03-14T06:46:37.087Z,6.83
2018-03-14T06:49:04.881Z,7.20
2018-03-14T06:51:33.791Z,6.67
2018-03-14T06:54:01.326Z,6.17
2018-03-14T06:56:29.076Z,7.27
2018-03-14T06:59:08.856Z,7.07
2018-03-14T07:01:48.647Z,6.80
2018-03-14T07:04:28.043Z,6.90
2018-03-14T07:06:55.742Z,8.17
2018-03-14T07:09:23.243Z,7.50
2018-03-14T07:11:50.773Z,6.50
2018-03-14T07:14:18.348Z,8.20
2018-03-14T07:16:47.062Z,7.60
2018-03-14T07:19:14.737Z,6.90
2018-03-14T07:21:43.161Z,7.83
2018-03-14T07:24:10.808Z,7.20
2018-03-14T07:26:38.336Z,7.40
2018-03-14T07:29:06.783Z,7.17
2018-03-14T07:31:34.404Z,6.90
2018-03-14T07:34:03.869Z,7.50
2018-03-14T07:36:31.546Z,7.60
2018-03-14T07:39:00.206Z,8.37
2018-03-14T07:41:27.800Z,6.93
2018-03-14T07:43:56.724Z,6.00
2018-03-14T07:46:24.602Z,6.07
2018-03-14T07:48:52.443Z,6.13
2018-03-14T07:51:20.304Z,5.13
2018-03-14T07:53:47.967Z,5.90
2018-03-14T07:56:15.723Z,6.30
2018-03-14T07:58:44.056Z,5.20
2018-03-14T08:01:12.708Z,5.20
2018-03-14T08:03:42.185Z,5.72
2018-03-14T08:06:11.982Z,5.70
2018-03-14T08:08:40.809Z,5.50
2018-03-14T08:11:10.088Z,5.53
2018-03-14T08:13:39.932Z,5.30
2018-03-14T08:16:08.842Z,5.30
2018-03-14T08:18:37.075Z,5.77
2018-03-14T08:21:05.545Z,6.53
2018-03-14T08:23:35.532Z,5.50
2018-03-14T08:26:04.742Z,5.20
2018-03-14T08:28:33.527Z,5.03
2018-03-14T08:31:02.599Z,5.80
2018-03-14T08:33:31.321Z,4.90
2018-03-14T08:36:00.610Z,4.70
2018-03-14T08:38:29.624Z,4.90
2018-03-14T08:40:58.267Z,5.60
2018-03-14T08:43:26.616Z,4.87
2018-03-14T08:45:56.093Z,4.60
2018-03-14T08:48:25.003Z,4.37
2018-03-14T08:50:54.932Z,4.27
2018-03-14T08:53:22.638Z,4.50
2018-03-14T08:55:51.468Z,4.00
2018-03-14T08:58:20.739Z,3.87
2018-03-14T09:00:49.977Z,3.47
2018-03-14T09:03:18.378Z,4.10
2018-03-14T09:05:47.614Z,4.40
2018-03-14T09:08:16.756Z,10.73
2018-03-14T09:10:45.673Z,4.13
2018-03-14T09:13:13.839Z,2.70
2018-03-14T09:15:42.745Z,3.30
2018-03-14T09:18:11.917Z,2.90
2018-03-14T09:20:41.273Z,3.03
2018-03-14T09:23:09.153Z,2.77
2018-03-14T09:25:38.075Z,2.47
2018-03-14T09:28:06.724Z,2.63
2018-03-14T09:30:35.822Z,2.33
2018-03-14T09:33:04.933Z,2.63
2018-03-14T09:35:34.922Z,2.50
2018-03-14T09:38:04.380Z,2.80
2018-03-14T09:40:33.577Z,2.70
2018-03-14T09:43:02.238Z,2.60
2018-03-14T09:45:30.592Z,2.63
2018-03-14T09:47:59.994Z,2.87
2018-03-14T09:50:28.987Z,3.17
2018-03-14T09:52:57.794Z,2.50
2018-03-14T09:55:26.734Z,3.17
2018-03-14T09:57:55.480Z,2.60
2018-03-14T10:00:24.180Z,2.63
2018-03-14T10:02:53.293Z,2.73
2018-03-14T10:05:21.398Z,2.80
2018-03-14T10:07:49.702Z,2.90
2018-03-14T10:10:18.946Z,2.90
2018-03-14T10:12:50.121Z,2.50
2018-03-14T10:15:19.457Z,3.00
2018-03-14T10:17:48.128Z,2.47
2018-03-14T10:20:18.178Z,3.08
2018-03-14T10:22:47.258Z,2.40
2018-03-14T10:25:16.328Z,2.50
2018-03-14T10:27:45.462Z,2.73
2018-03-14T10:30:15.220Z,3.07
2018-03-14T10:32:44.113Z,3.03
2018-03-14T10:35:13.505Z,2.90
2018-03-14T10:37:42.901Z,3.75
2018-03-14T10:40:12.134Z,3.20
2018-03-14T10:42:40.508Z,3.43
2018-03-14T10:45:09.612Z,4.13
2018-03-14T10:47:38.605Z,3.90
2018-03-14T10:50:07.692Z,4.00
2018-03-14T10:52:36.912Z,4.00
2018-03-14T10:55:05.793Z,4.60
2018-03-14T10:57:34.901Z,5.27
2018-03-14T11:00:04.056Z,4.28
2018-03-14T11:02:32.631Z,4.70
2018-03-14T11:05:01.894Z,5.10
2018-03-14T11:07:30.433Z,4.70
2018-03-14T11:09:59.562Z,4.60
2018-03-14T11:12:28.490Z,4.90
2018-03-14T11:14:57.003Z,3.93
2018-03-14T11:17:25.968Z,4.23
2018-03-14T11:19:54.398Z,3.78
2018-03-14T11:22:23.527Z,3.73
2018-03-14T11:24:52.617Z,3.70
2018-03-14T11:27:21.826Z,3.33
2018-03-14T11:29:50.115Z,4.20
2018-03-14T11:32:18.967Z,4.27
2018-03-14T11:34:48.370Z,3.50
2018-03-14T11:37:16.726Z,3.80
2018-03-14T11:39:45.911Z,3.70
2018-03-14T11:42:14.933Z,3.53
2018-03-14T11:44:44.210Z,3.90
2018-03-14T11:47:12.853Z,3.40
2018-03-14T11:49:42.149Z,3.90
2018-03-14T11:52:11.333Z,4.30
2018-03-14T11:54:39.821Z,3.60
2018-03-14T11:57:08.718Z,4.03
2018-03-14T11:59:37.140Z,3.63
2018-03-14T12:02:06.247Z,3.43
2018-03-14T12:04:35.547Z,3.22
2018-03-14T12:07:04.534Z,3.10
2018-03-14T12:09:32.585Z,2.93
2018-03-14T12:12:01.645Z,3.10
2018-03-14T12:14:30.300Z,2.70
2018-03-14T12:16:58.859Z,3.33
2018-03-14T12:19:28.454Z,3.00
2018-03-14T12:21:57.514Z,3.43
2018-03-14T12:24:27.371Z,2.60
2018-03-14T12:26:56.462Z,3.83
2018-03-14T12:29:26.358Z,4.00
2018-03-14T12:31:55.633Z,4.50
2018-03-14T12:34:25.191Z,3.83
2018-03-14T12:36:54.017Z,4.30
2018-03-14T12:39:22.253Z,3.63
2018-03-14T12:41:51.264Z,3.80
2018-03-14T12:44:20.545Z,4.07
2018-03-14T12:46:49.802Z,4.20
2018-03-14T12:49:18.353Z,4.37
2018-03-14T12:51:47.943Z,4.13
2018-03-14T12:54:15.482Z,3.60
2018-03-14T12:56:43.095Z,4.30
2018-03-14T12:59:11.803Z,4.50
2018-03-14T13:01:41.592Z,4.40
2018-03-14T13:04:10.448Z,5.00
2018-03-14T13:06:38.191Z,4.63
2018-03-14T13:09:07.303Z,3.70
2018-03-14T13:11:36.170Z,4.07
2018-03-14T13:14:04.743Z,4.17
2018-03-14T13:16:32.387Z,5.20
2018-03-14T13:19:00.756Z,4.70
2018-03-14T13:21:29.104Z,4.40
2018-03-14T13:23:59.069Z,4.30
2018-03-14T13:26:27.621Z,4.60
2018-03-14T13:28:56.240Z,4.27
2018-03-14T13:31:25.141Z,5.23
2018-03-14T13:33:54.471Z,4.83
2018-03-14T13:36:22.232Z,4.33
2018-03-14T13:38:51.348Z,4.50
2018-03-14T13:41:19.471Z,4.67
2018-03-14T13:43:47.216Z,4.97
2018-03-14T13:46:15.862Z,5.17
2018-03-14T13:48:45.742Z,4.40
2018-03-14T13:51:14.608Z,4.50
2018-03-14T13:53:43.655Z,5.30
2018-03-14T13:56:12.598Z,5.40
2018-03-14T13:58:40.674Z,4.87
2018-03-14T14:01:09.257Z,4.93
2018-03-14T14:03:38.547Z,4.97
2018-03-14T14:06:07.799Z,4.60
2018-03-14T14:08:36.917Z,3.80
2018-03-14T14:11:05.257Z,4.70
2018-03-14T14:13:33.385Z,5.70
2018-03-14T14:16:02.483Z,5.00
2018-03-14T14:18:31.896Z,4.60
2018-03-14T14:21:00.682Z,4.53
2018-03-14T14:23:29.481Z,4.57
2018-03-14T14:25:58.473Z,5.20
2018-03-14T14:28:26.172Z,5.00
2018-03-14T14:30:55.181Z,5.07
2018-03-14T14:33:22.850Z,10.20
2018-03-14T14:35:51.818Z,6.43
2018-03-14T14:38:20.200Z,5.90
2018-03-14T14:40:48.276Z,5.93
2018-03-14T14:43:17.814Z,5.90
2018-03-14T14:45:46.628Z,5.53
2018-03-14T14:48:14.863Z,5.65
2018-03-14T14:50:43.999Z,5.07
2018-03-14T14:53:11.533Z,5.40
2018-03-14T14:55:40.376Z,5.40
2018-03-14T14:58:08.277Z,6.00
2018-03-14T15:00:37.360Z,5.03
2018-03-14T15:03:06.049Z,5.43
2018-03-14T15:05:33.554Z,6.20
2018-03-14T15:08:02.916Z,5.40
2018-03-14T15:10:30.573Z,6.20
2018-03-14T15:12:59.828Z,5.63
2018-03-14T15:15:29.104Z,5.50
2018-03-14T15:17:58.101Z,4.67
2018-03-14T15:20:26.440Z,6.47
2018-03-14T15:22:54.242Z,6.70
2018-03-14T15:25:22.214Z,6.33
2018-03-14T15:27:51.622Z,6.13
2018-03-14T15:30:20.088Z,5.80
2018-03-14T15:32:49.409Z,5.80
2018-03-14T15:35:17.335Z,6.90
2018-03-14T15:37:44.921Z,6.47
2018-03-14T15:40:12.508Z,6.23
2018-03-14T15:42:41.273Z,5.83
2018-03-14T15:45:09.533Z,5.53
2018-03-14T15:47:38.247Z,4.83
2018-03-14T15:50:06.728Z,5.93
2018-03-14T15:52:34.566Z,5.80
2018-03-14T15:55:03.219Z,6.00
2018-03-14T15:57:32.219Z,5.37
2018-03-14T16:00:01.237Z,6.03
2018-03-14T16:02:29.077Z,5.82
2018-03-14T16:04:56.676Z,5.40
2018-03-14T16:07:24.771Z,5.50
2018-03-14T16:09:54.225Z,6.50
2018-03-14T16:12:21.972Z,6.20
2018-03-14T16:14:50.927Z,6.57
2018-03-14T16:17:18.581Z,6.43
2018-03-14T16:19:46.223Z,6.03
2018-03-14T16:22:14.930Z,5.80
2018-03-14T16:24:42.488Z,5.57
2018-03-14T16:27:12.128Z,5.00
2018-03-14T16:29:39.762Z,5.03
2018-03-14T16:32:07.386Z,4.28
2018-03-14T16:34:35.191Z,5.60
2018-03-14T16:37:02.874Z,4.83
2018-03-14T16:39:30.700Z,5.87
2018-03-14T16:41:59.196Z,5.10
2018-03-14T16:44:28.313Z,4.87
2018-03-14T16:46:57.264Z,5.33
2018-03-14T16:49:26.403Z,5.00
2018-03-14T16:51:54.169Z,5.20
2018-03-14T16:54:22.021Z,4.93
2018-03-14T16:56:49.606Z,5.70
2018-03-14T16:59:18.158Z,5.43
2018-03-14T17:01:46.157Z,5.63
2018-03-14T17:04:13.849Z,5.20
2018-03-14T17:06:43.257Z,5.50
2018-03-14T17:09:10.920Z,4.73
2018-03-14T17:11:39.762Z,5.50
2018-03-14T17:14:09.050Z,4.73
2018-03-14T17:16:36.845Z,5.43
2018-03-14T17:19:04.944Z,5.20
2018-03-14T17:21:32.449Z,5.10
2018-03-14T17:24:00.148Z,5.17
2018-03-14T17:26:28.648Z,5.97
2018-03-14T17:28:56.276Z,4.83
2018-03-14T17:31:25.098Z,4.77
2018-03-14T17:33:52.998Z,5.50
2018-03-14T17:36:21.595Z,5.70
2018-03-14T17:38:49.545Z,4.73
2018-03-14T17:41:18.449Z,6.30
2018-03-14T17:43:46.170Z,5.13
2018-03-14T17:46:14.100Z,6.93
2018-03-14T17:48:42.672Z,6.10
2018-03-14T17:51:10.648Z,6.60
2018-03-14T17:53:38.279Z,6.40
2018-03-14T17:56:05.902Z,5.80
2018-03-14T17:58:33.899Z,6.53
2018-03-14T18:01:01.678Z,6.50
2018-03-14T18:03:29.197Z,5.37
2018-03-14T18:05:58.639Z,5.83
2018-03-14T18:08:27.215Z,5.80
2018-03-14T18:10:56.186Z,6.07
2018-03-14T18:13:24.369Z,5.37
2018-03-14T18:15:53.107Z,6.37
2018-03-14T18:18:20.651Z,5.50
2018-03-14T18:20:49.443Z,6.60
2018-03-14T18:23:17.114Z,6.47
2018-03-14T18:25:45.442Z,5.90
2018-03-14T18:28:13.789Z,6.37
2018-03-14T18:30:43.140Z,6.30
2018-03-14T18:33:12.189Z,5.75
2018-03-14T18:35:40.051Z,6.30
2018-03-14T18:38:07.681Z,7.50
2018-03-14T18:40:35.491Z,5.40
2018-03-14T18:43:04.845Z,5.20
2018-03-14T18:45:33.003Z,5.80
2018-03-14T18:48:01.405Z,6.60
2018-03-14T18:50:29.296Z,6.00
2018-03-14T18:52:57.703Z,5.85
2018-03-14T18:55:26.110Z,6.95
2018-03-14T18:57:54.420Z,6.87
2018-03-14T19:00:22.877Z,7.07
2018-03-14T19:02:50.735Z,6.67
2018-03-14T19:05:19.613Z,7.67
2018-03-14T19:07:47.422Z,7.60
2018-03-14T19:10:15.050Z,7.20
2018-03-14T19:12:42.713Z,7.37
2018-03-14T19:15:12.100Z,9.10
2018-03-14T19:17:39.686Z,7.27
2018-03-14T19:20:07.399Z,7.25
2018-03-14T19:22:38.118Z,7.87
2018-03-14T19:25:07.374Z,6.90
2018-03-14T19:27:36.392Z,9.80
2018-03-14T19:30:04.696Z,5.83
2018-03-14T19:32:33.319Z,7.10
2018-03-14T19:35:02.644Z,11.23
2018-03-14T19:37:31.208Z,6.90
2018-03-14T19:39:59.380Z,7.77
2018-03-14T19:42:28.265Z,11.15
2018-03-14T19:44:56.675Z,7.97
2018-03-14T19:47:24.416Z,8.03
2018-03-14T19:49:52.491Z,8.17
2018-03-14T19:52:20.020Z,7.20
2018-03-14T19:54:49.057Z,8.10
2018-03-14T19:57:17.635Z,8.50
2018-03-14T19:59:45.681Z,8.17
2018-03-14T20:02:13.465Z,8.40
2018-03-14T20:04:42.144Z,8.10
2018-03-14T20:07:09.889Z,9.07
2018-03-14T20:09:38.083Z,8.03
2018-03-14T20:12:05.825Z,8.10
2018-03-14T20:14:34.042Z,7.47
2018-03-14T20:17:02.688Z,7.73
2018-03-14T20:19:31.947Z,7.83
2018-03-14T20:21:59.743Z,7.03
2018-03-14T20:24:27.379Z,7.13
2018-03-14T20:26:55.285Z,7.10
2018-03-14T20:29:24.099Z,6.90
2018-03-14T20:31:52.253Z,8.60
2018-03-14T20:34:20.475Z,7.47
2018-03-14T20:36:48.193Z,6.87
2018-03-14T20:39:15.826Z,6.67
2018-03-14T20:41:43.732Z,6.70
2018-03-14T20:44:12.922Z,7.00
2018-03-14T20:46:42.216Z,6.75
2018-03-14T20:49:09.937Z,7.70
2018-03-14T20:51:39.860Z,6.00
2018-03-14T20:54:07.395Z,6.73
2018-03-14T20:56:36.270Z,7.10
2018-03-14T20:59:03.818Z,7.30
2018-03-14T21:01:31.432Z,6.70
2018-03-14T21:03:59.132Z,6.73
2018-03-14T21:06:26.680Z,7.10
2018-03-14T21:08:54.421Z,7.23
2018-03-14T21:11:21.988Z,7.50
2018-03-14T21:13:50.418Z,7.67
2018-03-14T21:16:18.775Z,6.63
2018-03-14T21:18:47.765Z,7.53
2018-03-14T21:21:17.134Z,6.35
2018-03-14T21:23:45.007Z,6.73
2018-03-14T21:26:13.467Z,7.40
2018-03-14T21:28:41.777Z,7.33
2018-03-14T21:31:09.701Z,7.57
2018-03-14T21:33:38.074Z,8.20
2018-03-14T21:36:05.732Z,7.73
2018-03-14T21:38:33.391Z,8.03
2018-03-14T21:41:01.531Z,8.40
2018-03-14T21:43:30.028Z,12.90
2018-03-14T21:45:57.981Z,8.07
2018-03-14T21:48:25.525Z,8.33
2018-03-14T21:50:55.040Z,6.97
2018-03-14T21:53:23.410Z,8.03
2018-03-14T21:55:52.358Z,8.00
2018-03-14T21:58:20.991Z,6.83
2018-03-14T22:00:49.999Z,7.83
2018-03-14T22:03:18.683Z,7.77
2018-03-14T22:05:47.480Z,7.00
2018-03-14T22:08:16.529Z,6.80
2018-03-14T22:10:45.951Z,7.70
2018-03-14T22:13:14.966Z,7.60
2018-03-14T22:15:44.119Z,7.75
2018-03-14T22:18:12.142Z,7.37
2018-03-14T22:20:41.154Z,7.80
2018-03-14T22:23:09.818Z,9.30
2018-03-14T22:25:38.778Z,6.90
2018-03-14T22:28:07.319Z,8.13
2018-03-14T22:30:44.398Z,8.30
2018-03-14T22:33:13.806Z,7.82
2018-03-14T22:35:42.603Z,7.17
2018-03-14T22:38:11.873Z,9.20
2018-03-14T22:40:41.006Z,9.70
2018-03-14T22:43:10.397Z,8.33
2018-03-14T22:45:39.469Z,9.67
2018-03-14T22:48:08.479Z,8.60
2018-03-14T22:50:37.328Z,8.53
2018-03-14T22:53:06.844Z,7.50
2018-03-14T22:55:36.427Z,7.87
2018-03-14T22:58:05.268Z,8.13
2018-03-14T23:00:34.225Z,7.30
2018-03-14T23:03:03.888Z,7.82
2018-03-14T23:05:33.167Z,7.77
2018-03-14T23:08:02.368Z,7.40
2018-03-14T23:10:31.348Z,7.03
2018-03-14T23:13:00.638Z,7.50
2018-03-14T23:15:29.123Z,8.03
2018-03-14T23:17:58.384Z,8.50
2018-03-14T23:20:27.396Z,7.57
2018-03-14T23:22:56.611Z,7.40
2018-03-14T23:25:25.503Z,7.90
2018-03-14T23:27:54.201Z,8.47
2018-03-14T23:30:22.649Z,6.85
2018-03-14T23:32:51.449Z,8.77
2018-03-14T23:35:20.758Z,8.93
2018-03-14T23:37:49.626Z,7.50
2018-03-14T23:40:18.748Z,8.60
2018-03-14T23:42:48.117Z,9.20
2018-03-14T23:45:17.076Z,8.60
2018-03-14T23:47:46.263Z,7.80
2018-03-14T23:50:15.493Z,7.00
2018-03-14T23:52:44.946Z,7.63
2018-03-14T23:55:13.523Z,8.23
2018-03-14T23:57:42.349Z,8.80
